메인 페이지
METAR-TAF:

METAR-TAF

공항 :

쿠웨이트 국제공항

쿠웨이트, 쿠웨이트

위도: 29-13N, 경도: 047-59E, 고도: 55m

현재 날씨관측

예보는 27분 전, 19:00시(UTC)에 발표되었습니다.
무풍
온도 33°C
습도 53%
기압 1006 hPa
시정: 5000m
맑음
(약한) 연무

METAR: OKBK 201900Z 00000KT 5000 -HZ SKC 33/22 Q1006 NOSIG

시각: 22:27 (19:27 UTC)

예보

예보는 2 시간 42분 전, 16:45시(UTC)에 발표되었습니다.
예보 대상 시간: 20일 18시부터 21일 24시까지 (UTC)
여러 방향의 바람 3kt
시정: 6000m
전환 중
20일 21시부터 20일 23시까지 (UTC)
10kt

TAF: OKBK 201645Z 2018/2124 VRB03KT 6000 NSC BECMG 2021/2023 35010KT

4,000개 이상의 공항 관측 자료 및 예보 (METAR 및 TAF 보고).

지도상에서 검색 가능한 기상관측소가 노란 점과 빨간 점으로 표시되어 있습니다.

기상관측소 명을 보려면 표시 위로 마우스를 이동하세요.

날씨 관측과 예보를 보려면 클릭하세요.

지도 변경 : 확대하려면 엑스 표시가 있는 녹색 버튼, 축소하려면 빼기 표시가 있는 녹색 버튼, 다음 페이지의 지도를 보려면 녹색 화살표를 클릭하세요.


METAR-TAF: